sensor_id;sensor_type;location;lat;lon;timestamp;temperature;humidity
23087;DHT22;11712;51.134;4.156;2023-04-25T00:02:12;10.10;99.90
23087;DHT22;11712;51.134;4.156;2023-04-25T00:04:38;10.00;99.90
23087;DHT22;11712;51.134;4.156;2023-04-25T00:07:04;10.00;99.90
23087;DHT22;11712;51.134;4.156;2023-04-25T00:09:30;10.00;99.90
23087;DHT22;11712;51.134;4.156;2023-04-25T00:11:55;10.20;99.90
23087;DHT22;11712;51.134;4.156;2023-04-25T00:14:21;10.20;99.90
23087;DHT22;11712;51.134;4.156;2023-04-25T00:16:48;10.20;99.90
23087;DHT22;11712;51.134;4.156;2023-04-25T00:19:13;10.10;99.90
23087;DHT22;11712;51.134;4.156;2023-04-25T00:21:39;10.10;99.90
23087;DHT22;11712;51.134;4.156;2023-04-25T00:24:06;10.00;99.90
23087;DHT22;11712;51.134;4.156;2023-04-25T00:26:33;9.80;99.90
23087;DHT22;11712;51.134;4.156;2023-04-25T00:28:58;9.90;99.90
23087;DHT22;11712;51.134;4.156;2023-04-25T00:31:24;9.80;99.90
23087;DHT22;11712;51.134;4.156;2023-04-25T00:33:49;9.80;99.90
23087;DHT22;11712;51.134;4.156;2023-04-25T00:36:15;9.70;99.90
23087;DHT22;11712;51.134;4.156;2023-04-25T00:38:41;9.50;99.90
23087;DHT22;11712;51.134;4.156;2023-04-25T00:41:07;9.50;99.90
23087;DHT22;11712;51.134;4.156;2023-04-25T00:43:32;9.50;99.90
23087;DHT22;11712;51.134;4.156;2023-04-25T00:45:59;9.50;99.90
23087;DHT22;11712;51.134;4.156;2023-04-25T00:48:25;9.50;99.90
23087;DHT22;11712;51.134;4.156;2023-04-25T00:50:54;9.30;99.90
23087;DHT22;11712;51.134;4.156;2023-04-25T00:53:21;9.30;99.90
23087;DHT22;11712;51.134;4.156;2023-04-25T00:55:47;9.30;99.90
23087;DHT22;11712;51.134;4.156;2023-04-25T00:58:13;9.40;99.90
23087;DHT22;11712;51.134;4.156;2023-04-25T01:00:39;9.50;99.90
23087;DHT22;11712;51.134;4.156;2023-04-25T01:03:05;9.60;99.90
23087;DHT22;11712;51.134;4.156;2023-04-25T01:05:31;9.70;99.90
23087;DHT22;11712;51.134;4.156;2023-04-25T01:07:56;9.70;99.90
23087;DHT22;11712;51.134;4.156;2023-04-25T01:10:22;9.50;99.90
23087;DHT22;11712;51.134;4.156;2023-04-25T01:12:48;9.30;99.90
23087;DHT22;11712;51.134;4.156;2023-04-25T01:15:13;9.20;99.90
23087;DHT22;11712;51.134;4.156;2023-04-25T01:17:39;9.10;99.90
23087;DHT22;11712;51.134;4.156;2023-04-25T01:20:06;9.10;99.90
23087;DHT22;11712;51.134;4.156;2023-04-25T01:22:33;9.20;99.90
23087;DHT22;11712;51.134;4.156;2023-04-25T01:24:58;9.20;99.90
23087;DHT22;11712;51.134;4.156;2023-04-25T01:27:25;9.30;99.90
23087;DHT22;11712;51.134;4.156;2023-04-25T01:29:51;9.20;99.90
23087;DHT22;11712;51.134;4.156;2023-04-25T01:32:17;9.00;99.90
23087;DHT22;11712;51.134;4.156;2023-04-25T01:34:42;9.00;99.90
23087;DHT22;11712;51.134;4.156;2023-04-25T01:37:08;9.10;99.90
23087;DHT22;11712;51.134;4.156;2023-04-25T01:39:34;9.10;99.90
23087;DHT22;11712;51.134;4.156;2023-04-25T01:41:59;9.20;99.90
23087;DHT22;11712;51.134;4.156;2023-04-25T01:44:25;8.90;99.90
23087;DHT22;11712;51.134;4.156;2023-04-25T01:46:51;8.80;99.90
23087;DHT22;11712;51.134;4.156;2023-04-25T01:49:17;8.70;99.90
23087;DHT22;11712;51.134;4.156;2023-04-25T01:51:42;8.60;99.90
23087;DHT22;11712;51.134;4.156;2023-04-25T01:54:08;8.60;99.90
23087;DHT22;11712;51.134;4.156;2023-04-25T01:56:36;8.60;99.90
23087;DHT22;11712;51.134;4.156;2023-04-25T01:59:03;8.70;99.90
23087;DHT22;11712;51.134;4.156;2023-04-25T02:01:28;8.70;99.90
23087;DHT22;11712;51.134;4.156;2023-04-25T02:03:54;9.00;99.90
23087;DHT22;11712;51.134;4.156;2023-04-25T02:06:19;9.20;99.90
23087;DHT22;11712;51.134;4.156;2023-04-25T02:08:45;9.30;99.90
23087;DHT22;11712;51.134;4.156;2023-04-25T02:11:10;9.40;99.90
23087;DHT22;11712;51.134;4.156;2023-04-25T02:13:36;9.30;99.90
23087;DHT22;11712;51.134;4.156;2023-04-25T02:16:02;9.30;99.90
23087;DHT22;11712;51.134;4.156;2023-04-25T02:18:27;9.20;99.90
23087;DHT22;11712;51.134;4.156;2023-04-25T02:20:53;9.10;99.90
23087;DHT22;11712;51.134;4.156;2023-04-25T02:23:19;9.20;99.90
23087;DHT22;11712;51.134;4.156;2023-04-25T02:25:45;9.20;99.90
23087;DHT22;11712;51.134;4.156;2023-04-25T02:28:11;9.20;99.90
23087;DHT22;11712;51.134;4.156;2023-04-25T02:30:36;9.20;99.90
23087;DHT22;11712;51.134;4.156;2023-04-25T02:33:02;9.20;99.90
23087;DHT22;11712;51.134;4.156;2023-04-25T02:35:27;9.00;99.90
23087;DHT22;11712;51.134;4.156;2023-04-25T02:37:53;8.90;99.90
23087;DHT22;11712;51.134;4.156;2023-04-25T02:40:19;8.90;99.90
23087;DHT22;11712;51.134;4.156;2023-04-25T02:42:44;8.90;99.90
23087;DHT22;11712;51.134;4.156;2023-04-25T02:45:11;8.80;99.90
23087;DHT22;11712;51.134;4.156;2023-04-25T02:47:36;8.70;99.90
23087;DHT22;11712;51.134;4.156;2023-04-25T02:50:02;8.80;99.90
23087;DHT22;11712;51.134;4.156;2023-04-25T02:52:28;8.80;99.90
23087;DHT22;11712;51.134;4.156;2023-04-25T02:54:53;8.80;99.90
23087;DHT22;11712;51.134;4.156;2023-04-25T02:57:19;8.80;99.90
23087;DHT22;11712;51.134;4.156;2023-04-25T02:59:45;8.90;99.90
23087;DHT22;11712;51.134;4.156;2023-04-25T03:02:10;8.90;99.90
23087;DHT22;11712;51.134;4.156;2023-04-25T03:04:36;8.90;99.90
23087;DHT22;11712;51.134;4.156;2023-04-25T03:07:02;9.00;99.90
23087;DHT22;11712;51.134;4.156;2023-04-25T03:09:27;9.00;99.90
23087;DHT22;11712;51.134;4.156;2023-04-25T03:11:53;9.10;99.90
23087;DHT22;11712;51.134;4.156;2023-04-25T03:14:18;9.10;99.90
23087;DHT22;11712;51.134;4.156;2023-04-25T03:16:44;9.10;99.90
23087;DHT22;11712;51.134;4.156;2023-04-25T03:19:10;9.00;99.90
23087;DHT22;11712;51.134;4.156;2023-04-25T03:21:36;8.80;99.90
23087;DHT22;11712;51.134;4.156;2023-04-25T03:24:02;8.80;99.90
23087;DHT22;11712;51.134;4.156;2023-04-25T03:26:28;8.80;99.90
23087;DHT22;11712;51.134;4.156;2023-04-25T03:28:54;8.50;99.90
23087;DHT22;11712;51.134;4.156;2023-04-25T03:31:19;8.50;99.90
23087;DHT22;11712;51.134;4.156;2023-04-25T03:33:45;8.60;99.90
23087;DHT22;11712;51.134;4.156;2023-04-25T03:36:10;8.60;99.90
23087;DHT22;11712;51.134;4.156;2023-04-25T03:38:36;8.70;99.90
23087;DHT22;11712;51.134;4.156;2023-04-25T03:41:02;8.60;99.90
23087;DHT22;11712;51.134;4.156;2023-04-25T03:43:27;8.60;99.90
23087;DHT22;11712;51.134;4.156;2023-04-25T03:45:53;8.70;99.90
23087;DHT22;11712;51.134;4.156;2023-04-25T03:48:19;8.60;99.90
23087;DHT22;11712;51.134;4.156;2023-04-25T03:50:47;8.50;99.90
23087;DHT22;11712;51.134;4.156;2023-04-25T03:53:12;8.40;99.90
23087;DHT22;11712;51.134;4.156;2023-04-25T03:55:38;8.30;99.90
23087;DHT22;11712;51.134;4.156;2023-04-25T03:58:03;8.20;99.90
23087;DHT22;11712;51.134;4.156;2023-04-25T04:00:29;8.20;99.90
23087;DHT22;11712;51.134;4.156;2023-04-25T04:02:54;8.20;99.90
23087;DHT22;11712;51.134;4.156;2023-04-25T04:05:20;8.20;99.90
23087;DHT22;11712;51.134;4.156;2023-04-25T04:07:46;8.30;99.90
23087;DHT22;11712;51.134;4.156;2023-04-25T04:10:11;8.30;99.90
23087;DHT22;11712;51.134;4.156;2023-04-25T04:12:37;8.30;99.90
23087;DHT22;11712;51.134;4.156;2023-04-25T04:15:04;8.40;99.90
23087;DHT22;11712;51.134;4.156;2023-04-25T04:17:30;8.40;99.90
23087;DHT22;11712;51.134;4.156;2023-04-25T04:19:55;8.40;99.90
23087;DHT22;11712;51.134;4.156;2023-04-25T04:22:23;8.50;99.90
23087;DHT22;11712;51.134;4.156;2023-04-25T04:24:49;8.50;99.90
23087;DHT22;11712;51.134;4.156;2023-04-25T04:27:18;8.60;99.90
23087;DHT22;11712;51.134;4.156;2023-04-25T04:29:45;8.50;99.90
23087;DHT22;11712;51.134;4.156;2023-04-25T04:32:11;8.60;99.90
23087;DHT22;11712;51.134;4.156;2023-04-25T04:34:37;8.60;99.90
23087;DHT22;11712;51.134;4.156;2023-04-25T04:37:02;8.50;99.90
23087;DHT22;11712;51.134;4.156;2023-04-25T04:39:28;8.60;99.90
23087;DHT22;11712;51.134;4.156;2023-04-25T04:41:54;8.70;99.90
23087;DHT22;11712;51.134;4.156;2023-04-25T04:44:19;8.80;99.90
23087;DHT22;11712;51.134;4.156;2023-04-25T04:46:45;8.80;99.90
23087;DHT22;11712;51.134;4.156;2023-04-25T04:49:12;8.70;99.90
23087;DHT22;11712;51.134;4.156;2023-04-25T04:51:39;8.80;99.90
23087;DHT22;11712;51.134;4.156;2023-04-25T04:54:05;8.90;99.90
23087;DHT22;11712;51.134;4.156;2023-04-25T04:56:31;8.90;99.90
23087;DHT22;11712;51.134;4.156;2023-04-25T04:58:57;8.80;99.90
23087;DHT22;11712;51.134;4.156;2023-04-25T05:01:23;8.50;99.90
23087;DHT22;11712;51.134;4.156;2023-04-25T05:03:48;8.50;99.90
23087;DHT22;11712;51.134;4.156;2023-04-25T05:06:14;8.50;99.90
23087;DHT22;11712;51.134;4.156;2023-04-25T05:08:40;8.50;99.90
23087;DHT22;11712;51.134;4.156;2023-04-25T05:11:05;8.30;99.90
23087;DHT22;11712;51.134;4.156;2023-04-25T05:13:31;8.30;99.90
23087;DHT22;11712;51.134;4.156;2023-04-25T05:15:56;8.10;99.90
23087;DHT22;11712;51.134;4.156;2023-04-25T05:18:22;8.00;99.90
23087;DHT22;11712;51.134;4.156;2023-04-25T05:20:47;8.00;99.90
23087;DHT22;11712;51.134;4.156;2023-04-25T05:23:13;8.20;99.90
23087;DHT22;11712;51.134;4.156;2023-04-25T05:25:39;8.30;99.90
23087;DHT22;11712;51.134;4.156;2023-04-25T05:28:04;8.50;99.90
23087;DHT22;11712;51.134;4.156;2023-04-25T05:30:30;8.60;99.90
23087;DHT22;11712;51.134;4.156;2023-04-25T05:32:56;8.70;99.90
23087;DHT22;11712;51.134;4.156;2023-04-25T05:35:22;8.70;99.90
23087;DHT22;11712;51.134;4.156;2023-04-25T05:37:47;8.70;99.90
23087;DHT22;11712;51.134;4.156;2023-04-25T05:40:13;8.80;99.90
23087;DHT22;11712;51.134;4.156;2023-04-25T05:42:38;8.70;99.90
23087;DHT22;11712;51.134;4.156;2023-04-25T05:45:04;8.80;99.90
23087;DHT22;11712;51.134;4.156;2023-04-25T05:47:30;9.00;99.90
23087;DHT22;11712;51.134;4.156;2023-04-25T05:49:55;9.10;99.90
23087;DHT22;11712;51.134;4.156;2023-04-25T05:52:21;9.20;99.90
23087;DHT22;11712;51.134;4.156;2023-04-25T05:54:46;9.20;99.90
23087;DHT22;11712;51.134;4.156;2023-04-25T05:57:25;9.10;99.90
23087;DHT22;11712;51.134;4.156;2023-04-25T05:59:51;9.10;99.90
23087;DHT22;11712;51.134;4.156;2023-04-25T06:02:17;9.20;99.90
23087;DHT22;11712;51.134;4.156;2023-04-25T06:04:43;9.20;99.90
23087;DHT22;11712;51.134;4.156;2023-04-25T06:07:08;9.20;99.90
23087;DHT22;11712;51.134;4.156;2023-04-25T06:09:34;9.30;99.90
23087;DHT22;11712;51.134;4.156;2023-04-25T06:12:00;9.40;99.90
23087;DHT22;11712;51.134;4.156;2023-04-25T06:14:26;9.20;99.90
23087;DHT22;11712;51.134;4.156;2023-04-25T06:16:52;9.40;99.90
23087;DHT22;11712;51.134;4.156;2023-04-25T06:19:17;9.40;99.90
23087;DHT22;11712;51.134;4.156;2023-04-25T06:21:43;9.30;99.90
23087;DHT22;11712;51.134;4.156;2023-04-25T06:24:09;9.00;99.90
23087;DHT22;11712;51.134;4.156;2023-04-25T06:26:35;9.10;99.90
23087;DHT22;11712;51.134;4.156;2023-04-25T06:29:00;9.10;99.90
23087;DHT22;11712;51.134;4.156;2023-04-25T06:31:26;9.50;99.90
23087;DHT22;11712;51.134;4.156;2023-04-25T06:33:51;9.40;99.90
23087;DHT22;11712;51.134;4.156;2023-04-25T06:36:20;9.40;99.90
23087;DHT22;11712;51.134;4.156;2023-04-25T06:38:52;9.00;99.90
23087;DHT22;11712;51.134;4.156;2023-04-25T06:41:18;8.70;99.90
23087;DHT22;11712;51.134;4.156;2023-04-25T06:43:44;8.70;99.90
23087;DHT22;11712;51.134;4.156;2023-04-25T06:46:09;8.70;99.90
23087;DHT22;11712;51.134;4.156;2023-04-25T06:48:35;8.90;99.90
23087;DHT22;11712;51.134;4.156;2023-04-25T06:51:01;9.10;99.90
23087;DHT22;11712;51.134;4.156;2023-04-25T06:53:26;9.30;99.90
23087;DHT22;11712;51.134;4.156;2023-04-25T06:55:52;9.30;99.90
23087;DHT22;11712;51.134;4.156;2023-04-25T06:58:18;9.50;99.90
23087;DHT22;11712;51.134;4.156;2023-04-25T07:00:43;9.80;99.90
23087;DHT22;11712;51.134;4.156;2023-04-25T07:03:09;10.00;99.90
23087;DHT22;11712;51.134;4.156;2023-04-25T07:05:34;10.20;99.90
23087;DHT22;11712;51.134;4.156;2023-04-25T07:08:00;10.10;99.90
23087;DHT22;11712;51.134;4.156;2023-04-25T07:10:26;10.20;99.90
23087;DHT22;11712;51.134;4.156;2023-04-25T07:12:51;10.00;99.90
23087;DHT22;11712;51.134;4.156;2023-04-25T07:15:17;9.90;99.90
23087;DHT22;11712;51.134;4.156;2023-04-25T07:17:42;10.00;99.90
23087;DHT22;11712;51.134;4.156;2023-04-25T07:20:08;9.80;99.90
23087;DHT22;11712;51.134;4.156;2023-04-25T07:22:34;9.70;99.90
23087;DHT22;11712;51.134;4.156;2023-04-25T07:25:00;9.60;99.90
23087;DHT22;11712;51.134;4.156;2023-04-25T07:27:25;9.70;99.90
23087;DHT22;11712;51.134;4.156;2023-04-25T07:29:51;9.70;99.90
23087;DHT22;11712;51.134;4.156;2023-04-25T07:32:16;9.80;99.90
23087;DHT22;11712;51.134;4.156;2023-04-25T07:34:42;9.60;99.90
23087;DHT22;11712;51.134;4.156;2023-04-25T07:37:08;9.70;99.90
23087;DHT22;11712;51.134;4.156;2023-04-25T07:39:33;9.80;99.90
23087;DHT22;11712;51.134;4.156;2023-04-25T07:41:59;10.10;99.90
23087;DHT22;11712;51.134;4.156;2023-04-25T07:44:25;10.30;99.90
23087;DHT22;11712;51.134;4.156;2023-04-25T07:46:51;10.30;99.90
23087;DHT22;11712;51.134;4.156;2023-04-25T07:49:16;10.50;99.90
23087;DHT22;11712;51.134;4.156;2023-04-25T07:51:42;10.90;99.90
23087;DHT22;11712;51.134;4.156;2023-04-25T07:54:09;11.20;99.90
23087;DHT22;11712;51.134;4.156;2023-04-25T07:56:35;11.40;99.90
23087;DHT22;11712;51.134;4.156;2023-04-25T07:59:00;11.10;99.90
23087;DHT22;11712;51.134;4.156;2023-04-25T08:01:26;10.90;99.90
23087;DHT22;11712;51.134;4.156;2023-04-25T08:03:52;10.80;99.90
23087;DHT22;11712;51.134;4.156;2023-04-25T08:06:18;10.60;99.90
23087;DHT22;11712;51.134;4.156;2023-04-25T08:08:43;10.50;99.90
23087;DHT22;11712;51.134;4.156;2023-04-25T08:11:09;10.30;99.90
23087;DHT22;11712;51.134;4.156;2023-04-25T08:13:35;9.60;99.90
23087;DHT22;11712;51.134;4.156;2023-04-25T08:16:01;9.30;99.90
23087;DHT22;11712;51.134;4.156;2023-04-25T08:18:26;9.30;99.90
23087;DHT22;11712;51.134;4.156;2023-04-25T08:20:52;9.30;99.90
23087;DHT22;11712;51.134;4.156;2023-04-25T08:23:18;9.30;99.90
23087;DHT22;11712;51.134;4.156;2023-04-25T08:25:43;9.40;99.90
23087;DHT22;11712;51.134;4.156;2023-04-25T08:28:09;9.30;99.90
23087;DHT22;11712;51.134;4.156;2023-04-25T08:30:34;9.20;99.90
23087;DHT22;11712;51.134;4.156;2023-04-25T08:33:00;9.10;99.90
23087;DHT22;11712;51.134;4.156;2023-04-25T08:35:26;9.10;99.90
23087;DHT22;11712;51.134;4.156;2023-04-25T08:37:51;8.90;99.90
23087;DHT22;11712;51.134;4.156;2023-04-25T08:40:17;9.10;99.90
23087;DHT22;11712;51.134;4.156;2023-04-25T08:42:44;9.40;99.90
23087;DHT22;11712;51.134;4.156;2023-04-25T08:45:11;9.70;99.90
23087;DHT22;11712;51.134;4.156;2023-04-25T08:47:37;10.00;99.90
23087;DHT22;11712;51.134;4.156;2023-04-25T08:50:03;10.20;99.90
23087;DHT22;11712;51.134;4.156;2023-04-25T08:52:31;10.50;99.90
23087;DHT22;11712;51.134;4.156;2023-04-25T08:54:58;10.60;99.90
23087;DHT22;11712;51.134;4.156;2023-04-25T08:57:25;10.50;99.90
23087;DHT22;11712;51.134;4.156;2023-04-25T08:59:51;10.50;99.90
23087;DHT22;11712;51.134;4.156;2023-04-25T09:02:18;10.60;99.90
23087;DHT22;11712;51.134;4.156;2023-04-25T09:04:45;10.70;99.90
23087;DHT22;11712;51.134;4.156;2023-04-25T09:07:11;10.80;99.90
23087;DHT22;11712;51.134;4.156;2023-04-25T09:09:37;10.90;99.90
23087;DHT22;11712;51.134;4.156;2023-04-25T09:12:03;11.00;99.90
23087;DHT22;11712;51.134;4.156;2023-04-25T09:14:28;11.20;99.90
23087;DHT22;11712;51.134;4.156;2023-04-25T09:21:58;11.50;99.90
23087;DHT22;11712;51.134;4.156;2023-04-25T09:24:31;11.20;99.90
23087;DHT22;11712;51.134;4.156;2023-04-25T09:26:57;11.00;99.90
23087;DHT22;11712;51.134;4.156;2023-04-25T09:29:31;10.90;99.90
23087;DHT22;11712;51.134;4.156;2023-04-25T09:34:55;10.20;99.90
23087;DHT22;11712;51.134;4.156;2023-04-25T09:37:28;10.60;99.90
23087;DHT22;11712;51.134;4.156;2023-04-25T09:39:54;11.20;99.90
23087;DHT22;11712;51.134;4.156;2023-04-25T09:42:24;11.60;99.90
23087;DHT22;11712;51.134;4.156;2023-04-25T09:44:53;11.70;99.90
23087;DHT22;11712;51.134;4.156;2023-04-25T09:47:19;11.40;99.90
23087;DHT22;11712;51.134;4.156;2023-04-25T09:49:47;11.50;99.90
23087;DHT22;11712;51.134;4.156;2023-04-25T09:52:14;10.90;99.90
23087;DHT22;11712;51.134;4.156;2023-04-25T09:54:40;10.50;99.90
23087;DHT22;11712;51.134;4.156;2023-04-25T09:57:09;10.20;99.90
23087;DHT22;11712;51.134;4.156;2023-04-25T09:59:36;9.80;99.90
23087;DHT22;11712;51.134;4.156;2023-04-25T10:02:03;9.20;99.90
23087;DHT22;11712;51.134;4.156;2023-04-25T10:04:29;9.20;99.90
23087;DHT22;11712;51.134;4.156;2023-04-25T10:06:56;9.00;99.90
23087;DHT22;11712;51.134;4.156;2023-04-25T10:09:24;9.00;99.90
23087;DHT22;11712;51.134;4.156;2023-04-25T10:11:50;9.00;99.90
23087;DHT22;11712;51.134;4.156;2023-04-25T10:14:16;9.20;99.90
23087;DHT22;11712;51.134;4.156;2023-04-25T10:16:42;9.50;99.90
23087;DHT22;11712;51.134;4.156;2023-04-25T10:19:09;9.70;99.90
23087;DHT22;11712;51.134;4.156;2023-04-25T10:21:35;10.00;99.90
23087;DHT22;11712;51.134;4.156;2023-04-25T10:24:02;9.70;99.90
23087;DHT22;11712;51.134;4.156;2023-04-25T10:26:28;9.60;99.90
23087;DHT22;11712;51.134;4.156;2023-04-25T10:29:01;9.70;99.90
23087;DHT22;11712;51.134;4.156;2023-04-25T10:31:26;10.00;99.90
23087;DHT22;11712;51.134;4.156;2023-04-25T10:33:53;10.50;99.90
23087;DHT22;11712;51.134;4.156;2023-04-25T10:36:19;10.70;99.90
23087;DHT22;11712;51.134;4.156;2023-04-25T10:38:46;10.90;99.90
23087;DHT22;11712;51.134;4.156;2023-04-25T10:41:13;11.30;99.90
23087;DHT22;11712;51.134;4.156;2023-04-25T10:43:39;11.20;99.90
23087;DHT22;11712;51.134;4.156;2023-04-25T10:48:53;11.20;99.90
23087;DHT22;11712;51.134;4.156;2023-04-25T10:56:20;11.60;99.90
23087;DHT22;11712;51.134;4.156;2023-04-25T10:58:47;11.80;99.90
23087;DHT22;11712;51.134;4.156;2023-04-25T11:01:13;12.10;99.90
23087;DHT22;11712;51.134;4.156;2023-04-25T11:03:42;12.30;99.90
23087;DHT22;11712;51.134;4.156;2023-04-25T11:06:29;12.30;99.90
23087;DHT22;11712;51.134;4.156;2023-04-25T11:08:58;12.00;99.90
23087;DHT22;11712;51.134;4.156;2023-04-25T11:11:25;11.80;99.90
23087;DHT22;11712;51.134;4.156;2023-04-25T11:13:51;12.00;99.90
23087;DHT22;11712;51.134;4.156;2023-04-25T11:16:17;12.10;99.90
23087;DHT22;11712;51.134;4.156;2023-04-25T11:18:43;12.40;99.90
23087;DHT22;11712;51.134;4.156;2023-04-25T11:21:10;12.30;99.90
23087;DHT22;11712;51.134;4.156;2023-04-25T11:23:35;12.10;99.90
23087;DHT22;11712;51.134;4.156;2023-04-25T11:26:02;12.00;99.90
23087;DHT22;11712;51.134;4.156;2023-04-25T11:28:27;12.20;99.90
23087;DHT22;11712;51.134;4.156;2023-04-25T11:30:53;12.50;99.90
23087;DHT22;11712;51.134;4.156;2023-04-25T11:33:22;13.10;99.90
23087;DHT22;11712;51.134;4.156;2023-04-25T11:35:48;13.40;99.90
23087;DHT22;11712;51.134;4.156;2023-04-25T11:38:13;13.00;99.90
23087;DHT22;11712;51.134;4.156;2023-04-25T11:40:39;12.70;99.90
23087;DHT22;11712;51.134;4.156;2023-04-25T11:43:05;12.50;99.90
23087;DHT22;11712;51.134;4.156;2023-04-25T11:45:31;12.50;99.90
23087;DHT22;11712;51.134;4.156;2023-04-25T11:47:57;12.60;99.90
23087;DHT22;11712;51.134;4.156;2023-04-25T11:50:22;12.30;99.90
23087;DHT22;11712;51.134;4.156;2023-04-25T11:52:48;12.10;99.90
23087;DHT22;11712;51.134;4.156;2023-04-25T11:57:40;12.00;99.90
23087;DHT22;11712;51.134;4.156;2023-04-25T12:02:35;12.30;99.90
23087;DHT22;11712;51.134;4.156;2023-04-25T12:05:01;12.60;99.90
23087;DHT22;11712;51.134;4.156;2023-04-25T12:07:29;12.80;99.90
23087;DHT22;11712;51.134;4.156;2023-04-25T12:09:55;12.80;99.90
23087;DHT22;11712;51.134;4.156;2023-04-25T12:12:21;12.70;99.90
23087;DHT22;11712;51.134;4.156;2023-04-25T12:14:47;12.50;99.90
23087;DHT22;11712;51.134;4.156;2023-04-25T12:17:14;12.30;99.90
23087;DHT22;11712;51.134;4.156;2023-04-25T12:19:39;12.30;99.90
23087;DHT22;11712;51.134;4.156;2023-04-25T12:22:18;12.40;99.90
23087;DHT22;11712;51.134;4.156;2023-04-25T12:24:44;12.40;99.90
23087;DHT22;11712;51.134;4.156;2023-04-25T12:27:10;12.70;99.90
23087;DHT22;11712;51.134;4.156;2023-04-25T12:29:35;13.20;99.90
23087;DHT22;11712;51.134;4.156;2023-04-25T12:32:01;13.60;99.90
23087;DHT22;11712;51.134;4.156;2023-04-25T12:34:27;13.40;99.90
23087;DHT22;11712;51.134;4.156;2023-04-25T12:36:52;13.00;99.90
23087;DHT22;11712;51.134;4.156;2023-04-25T12:39:21;12.70;99.90
23087;DHT22;11712;51.134;4.156;2023-04-25T12:41:48;12.50;99.90
23087;DHT22;11712;51.134;4.156;2023-04-25T12:44:13;12.40;99.90
23087;DHT22;11712;51.134;4.156;2023-04-25T12:46:39;12.10;99.90
23087;DHT22;11712;51.134;4.156;2023-04-25T12:49:06;11.90;99.90
23087;DHT22;11712;51.134;4.156;2023-04-25T12:51:33;11.90;99.90
23087;DHT22;11712;51.134;4.156;2023-04-25T12:53:59;12.10;99.90
23087;DHT22;11712;51.134;4.156;2023-04-25T12:56:28;12.10;99.90
23087;DHT22;11712;51.134;4.156;2023-04-25T12:58:54;12.00;99.90
23087;DHT22;11712;51.134;4.156;2023-04-25T13:01:20;12.10;99.90
23087;DHT22;11712;51.134;4.156;2023-04-25T13:03:46;12.10;99.90
23087;DHT22;11712;51.134;4.156;2023-04-25T13:06:12;12.30;99.90
23087;DHT22;11712;51.134;4.156;2023-04-25T13:08:38;12.40;99.90
23087;DHT22;11712;51.134;4.156;2023-04-25T13:11:04;12.50;99.90
23087;DHT22;11712;51.134;4.156;2023-04-25T13:13:30;12.80;99.90
23087;DHT22;11712;51.134;4.156;2023-04-25T13:15:57;13.00;99.90
23087;DHT22;11712;51.134;4.156;2023-04-25T13:18:22;13.10;99.90
23087;DHT22;11712;51.134;4.156;2023-04-25T13:20:52;13.10;99.90
23087;DHT22;11712;51.134;4.156;2023-04-25T13:23:17;12.90;99.90
23087;DHT22;11712;51.134;4.156;2023-04-25T13:25:43;12.70;99.90
23087;DHT22;11712;51.134;4.156;2023-04-25T13:28:08;12.80;99.90
23087;DHT22;11712;51.134;4.156;2023-04-25T13:30:34;12.80;99.90
23087;DHT22;11712;51.134;4.156;2023-04-25T13:32:59;12.70;99.90
23087;DHT22;11712;51.134;4.156;2023-04-25T13:35:29;12.50;99.90
23087;DHT22;11712;51.134;4.156;2023-04-25T13:37:55;12.30;99.90
23087;DHT22;11712;51.134;4.156;2023-04-25T13:40:20;12.40;99.90
23087;DHT22;11712;51.134;4.156;2023-04-25T13:42:46;12.40;99.90
23087;DHT22;11712;51.134;4.156;2023-04-25T13:45:12;12.40;99.90
23087;DHT22;11712;51.134;4.156;2023-04-25T13:47:37;12.50;99.90
23087;DHT22;11712;51.134;4.156;2023-04-25T13:50:03;12.70;99.90
23087;DHT22;11712;51.134;4.156;2023-04-25T13:52:29;12.80;99.90
23087;DHT22;11712;51.134;4.156;2023-04-25T13:54:54;12.80;99.90
23087;DHT22;11712;51.134;4.156;2023-04-25T13:57:21;13.00;99.90
23087;DHT22;11712;51.134;4.156;2023-04-25T13:59:46;13.20;99.90
23087;DHT22;11712;51.134;4.156;2023-04-25T14:02:12;12.90;99.90
23087;DHT22;11712;51.134;4.156;2023-04-25T14:04:38;12.60;99.90
23087;DHT22;11712;51.134;4.156;2023-04-25T14:07:03;12.20;99.90
23087;DHT22;11712;51.134;4.156;2023-04-25T14:09:30;12.20;99.90
23087;DHT22;11712;51.134;4.156;2023-04-25T14:11:55;12.30;99.90
23087;DHT22;11712;51.134;4.156;2023-04-25T14:14:21;12.90;99.90
23087;DHT22;11712;51.134;4.156;2023-04-25T14:16:48;13.20;99.90
23087;DHT22;11712;51.134;4.156;2023-04-25T14:19:14;13.30;99.90
23087;DHT22;11712;51.134;4.156;2023-04-25T14:21:39;13.00;99.90
23087;DHT22;11712;51.134;4.156;2023-04-25T14:24:05;12.80;99.90
23087;DHT22;11712;51.134;4.156;2023-04-25T14:26:30;12.50;99.90
23087;DHT22;11712;51.134;4.156;2023-04-25T14:28:56;12.20;99.90
23087;DHT22;11712;51.134;4.156;2023-04-25T14:31:22;11.90;99.90
23087;DHT22;11712;51.134;4.156;2023-04-25T14:33:47;11.90;99.90
23087;DHT22;11712;51.134;4.156;2023-04-25T14:36:13;11.90;99.90
23087;DHT22;11712;51.134;4.156;2023-04-25T14:38:39;12.00;99.90
23087;DHT22;11712;51.134;4.156;2023-04-25T14:41:05;12.00;99.90
23087;DHT22;11712;51.134;4.156;2023-04-25T14:43:31;12.20;99.90
23087;DHT22;11712;51.134;4.156;2023-04-25T14:45:56;12.20;99.90
23087;DHT22;11712;51.134;4.156;2023-04-25T14:48:22;11.90;99.90
23087;DHT22;11712;51.134;4.156;2023-04-25T14:50:48;11.80;99.90
23087;DHT22;11712;51.134;4.156;2023-04-25T14:53:14;11.50;99.90
23087;DHT22;11712;51.134;4.156;2023-04-25T14:55:40;12.10;99.90
23087;DHT22;11712;51.134;4.156;2023-04-25T14:58:05;13.00;99.90
23087;DHT22;11712;51.134;4.156;2023-04-25T15:00:32;13.70;99.90
23087;DHT22;11712;51.134;4.156;2023-04-25T15:02:58;14.40;99.90
23087;DHT22;11712;51.134;4.156;2023-04-25T15:05:24;14.70;99.90
23087;DHT22;11712;51.134;4.156;2023-04-25T15:07:49;15.30;99.90
23087;DHT22;11712;51.134;4.156;2023-04-25T15:10:16;16.10;99.90
23087;DHT22;11712;51.134;4.156;2023-04-25T15:12:42;16.10;99.90
23087;DHT22;11712;51.134;4.156;2023-04-25T15:15:08;15.70;99.90
23087;DHT22;11712;51.134;4.156;2023-04-25T15:17:40;15.10;99.90
23087;DHT22;11712;51.134;4.156;2023-04-25T15:20:07;14.80;99.90
23087;DHT22;11712;51.134;4.156;2023-04-25T15:22:32;15.00;99.90
23087;DHT22;11712;51.134;4.156;2023-04-25T15:24:58;14.90;99.90
23087;DHT22;11712;51.134;4.156;2023-04-25T15:27:24;14.80;99.90
23087;DHT22;11712;51.134;4.156;2023-04-25T15:29:49;15.50;99.90
23087;DHT22;11712;51.134;4.156;2023-04-25T15:32:15;15.80;99.90
23087;DHT22;11712;51.134;4.156;2023-04-25T15:34:41;15.60;99.90
23087;DHT22;11712;51.134;4.156;2023-04-25T15:37:06;15.50;99.90
23087;DHT22;11712;51.134;4.156;2023-04-25T15:39:32;15.20;99.90
23087;DHT22;11712;51.134;4.156;2023-04-25T15:41:57;14.90;99.90
23087;DHT22;11712;51.134;4.156;2023-04-25T15:44:23;14.60;99.90
23087;DHT22;11712;51.134;4.156;2023-04-25T15:46:49;14.40;99.90
23087;DHT22;11712;51.134;4.156;2023-04-25T15:49:15;14.10;99.90
23087;DHT22;11712;51.134;4.156;2023-04-25T15:51:40;14.70;99.90
23087;DHT22;11712;51.134;4.156;2023-04-25T15:54:06;14.70;99.90